Time;durP1;ratioP1;P1;durP2;ratioP2;P2;SDS_P1;SDS_P2;PMS_P1;PMS_P2;Temp;Humidity;BMP_temperature;BMP_pressure;BME280_temperature;BME280_humidity;BME280_pressure;Samples;Min_cycle;Max_cycle;Signal;HPM_P1;HPM_P2
2023/07/07 00:01:49;;;;;;;6.38;5.43;;;;;;;;;;10330082;28;20068;-59
2023/07/07 00:06:47;;;;;;;12.35;6.05;;;;;;;;;;10334429;28;20099;-59
2023/07/07 00:11:46;;;;;;;13.32;5.47;;;;;;;;;;10336642;28;20079;-58
2023/07/07 00:16:44;;;;;;;11.75;5.93;;;;;;;;;;10336850;28;20072;-59
2023/07/07 00:21:44;;;;;;;10.70;5.13;;;;;;;;;;10336567;28;20094;-59
2023/07/07 00:26:42;;;;;;;10.05;6.30;;;;;;;;;;10336661;28;20441;-60
2023/07/07 00:31:40;;;;;;;7.53;5.00;;;;;;;;;;10335647;28;20543;-58
2023/07/07 00:36:38;;;;;;;8.90;5.28;;;;;;;;;;10336272;28;20536;-59
2023/07/07 00:41:39;;;;;;;6.20;5.10;;;;;;;;;;10336272;28;20067;-59
2023/07/07 00:46:38;;;;;;;8.15;4.85;;;;;;;;;;10336035;28;20087;-59
2023/07/07 00:51:39;;;;;;;17.70;6.43;;;;;;;;;;10339101;28;20067;-59
2023/07/07 00:56:42;;;;;;;15.05;6.57;;;;;;;;;;10335630;28;20072;-60
2023/07/07 01:01:40;;;;;;;11.93;6.13;;;;;;;;;;10337334;28;20068;-59
2023/07/07 01:06:42;;;;;;;11.63;6.18;;;;;;;;;;10337868;28;20104;-60
2023/07/07 01:11:41;;;;;;;12.52;6.15;;;;;;;;;;10332274;28;20106;-59
2023/07/07 01:16:44;;;;;;;10.63;5.72;;;;;;;;;;10332662;28;20438;-59
2023/07/07 01:21:46;;;;;;;10.38;5.18;;;;;;;;;;10335996;28;20257;-58
2023/07/07 01:27:01;;;;;;;10.10;5.55;;;;;;;;;;10317348;28;20505;-58
2023/07/07 01:32:02;;;;;;;11.48;5.68;;;;;;;;;;10335699;28;20094;-59
2023/07/07 01:37:01;;;;;;;7.55;5.50;;;;;;;;;;10334449;28;20091;-59
2023/07/07 01:42:01;;;;;;;9.95;6.35;;;;;;;;;;10334344;28;20084;-59
2023/07/07 01:47:09;;;;;;;9.88;5.88;;;;;;;;;;10319151;28;20084;-59
2023/07/07 01:52:09;;;;;;;8.80;5.22;;;;;;;;;;10316300;28;20064;-59
2023/07/07 01:57:08;;;;;;;14.75;5.75;;;;;;;;;;10320564;28;20084;-59
2023/07/07 02:02:08;;;;;;;12.93;5.68;;;;;;;;;;10317972;28;20079;-59
2023/07/07 02:07:07;;;;;;;8.52;5.93;;;;;;;;;;10332340;28;20068;-59
2023/07/07 02:12:05;;;;;;;13.07;5.88;;;;;;;;;;10322983;28;20064;-59
2023/07/07 02:17:04;;;;;;;12.73;5.82;;;;;;;;;;10326523;28;20075;-59
2023/07/07 02:22:04;;;;;;;8.05;5.47;;;;;;;;;;10332905;28;20070;-59
2023/07/07 02:27:02;;;;;;;6.55;4.97;;;;;;;;;;10314927;28;20068;-59
2023/07/07 02:32:00;;;;;;;15.88;5.28;;;;;;;;;;10331687;28;20082;-59
2023/07/07 02:36:59;;;;;;;7.30;5.60;;;;;;;;;;10331272;28;20072;-58
2023/07/07 02:41:59;;;;;;;13.02;5.55;;;;;;;;;;10334098;28;20067;-60
2023/07/07 02:46:57;;;;;;;9.35;5.57;;;;;;;;;;10316152;28;20107;-58
2023/07/07 02:51:55;;;;;;;8.55;5.93;;;;;;;;;;10316444;28;20520;-59
2023/07/07 02:56:54;;;;;;;7.22;5.70;;;;;;;;;;10331169;28;20094;-59
2023/07/07 03:01:54;;;;;;;14.35;6.35;;;;;;;;;;10315157;28;20087;-59
2023/07/07 03:06:52;;;;;;;10.55;5.65;;;;;;;;;;10313877;28;20044;-58
2023/07/07 03:11:50;;;;;;;6.40;5.75;;;;;;;;;;10331208;28;20067;-59
2023/07/07 03:16:56;;;;;;;6.82;5.55;;;;;;;;;;10314460;28;20087;-59
2023/07/07 03:22:00;;;;;;;11.43;6.50;;;;;;;;;;10311605;28;20087;-59
2023/07/07 03:27:22;;;;;;;9.65;7.07;;;;;;;;;;10324354;28;20121;-59
2023/07/07 03:32:22;;;;;;;8.52;6.05;;;;;;;;;;10315204;28;20047;-59
2023/07/07 03:37:29;;;;;;;14.13;7.35;;;;;;;;;;10320870;28;20087;-59
2023/07/07 03:42:30;;;;;;;9.85;6.88;;;;;;;;;;10323514;28;20556;-58
2023/07/07 03:47:29;;;;;;;10.18;5.97;;;;;;;;;;10320294;28;20080;-59
2023/07/07 03:52:29;;;;;;;7.22;6.53;;;;;;;;;;10320739;28;20463;-59
2023/07/07 03:57:27;;;;;;;11.10;6.90;;;;;;;;;;10338470;28;20072;-59
2023/07/07 04:02:25;;;;;;;9.90;7.13;;;;;;;;;;10345799;28;20489;-59
2023/07/07 04:07:25;;;;;;;13.65;7.60;;;;;;;;;;10338540;28;20059;-59
2023/07/07 04:12:23;;;;;;;14.02;6.55;;;;;;;;;;10336780;28;20072;-59
2023/07/07 04:17:22;;;;;;;9.27;6.90;;;;;;;;;;10336103;28;20083;-59
2023/07/07 04:22:20;;;;;;;10.93;7.32;;;;;;;;;;10319366;28;20081;-59
2023/07/07 04:27:20;;;;;;;11.50;7.30;;;;;;;;;;10336483;28;20068;-59
2023/07/07 04:32:18;;;;;;;11.07;6.93;;;;;;;;;;10341700;28;20063;-59
2023/07/07 04:37:16;;;;;;;16.58;9.57;;;;;;;;;;10336641;28;20086;-60
2023/07/07 04:42:15;;;;;;;18.65;8.88;;;;;;;;;;10339664;28;20499;-59
2023/07/07 04:47:15;;;;;;;16.00;6.78;;;;;;;;;;10337178;28;20099;-59
2023/07/07 04:52:14;;;;;;;15.13;7.85;;;;;;;;;;10332024;28;20083;-58
2023/07/07 04:57:12;;;;;;;11.88;7.22;;;;;;;;;;10336046;28;20090;-61
2023/07/07 05:02:10;;;;;;;9.27;7.05;;;;;;;;;;10335306;28;20072;-59
2023/07/07 05:07:10;;;;;;;9.05;7.55;;;;;;;;;;10336613;28;20061;-59
2023/07/07 05:12:09;;;;;;;16.00;8.02;;;;;;;;;;10332700;28;20060;-60
2023/07/07 05:17:08;;;;;;;8.73;7.22;;;;;;;;;;10332947;28;20075;-59
2023/07/07 05:22:06;;;;;;;15.38;8.40;;;;;;;;;;10333916;28;20064;-59
2023/07/07 05:27:06;;;;;;;10.50;6.65;;;;;;;;;;10334246;28;20074;-59
2023/07/07 05:32:05;;;;;;;8.43;7.60;;;;;;;;;;10332322;28;20487;-59
2023/07/07 05:37:04;;;;;;;8.05;7.25;;;;;;;;;;10337703;28;20470;-58
2023/07/07 05:42:04;;;;;;;11.73;6.82;;;;;;;;;;10342374;28;20717;-58
2023/07/07 05:47:04;;;;;;;9.18;6.95;;;;;;;;;;10339652;28;20075;-58
2023/07/07 05:52:02;;;;;;;9.40;7.00;;;;;;;;;;10326291;28;20343;-59
2023/07/07 05:57:00;;;;;;;6.85;6.25;;;;;;;;;;10323459;28;20072;-59
2023/07/07 06:01:58;;;;;;;13.55;7.80;;;;;;;;;;10334025;28;20064;-59
2023/07/07 06:06:58;;;;;;;7.65;6.65;;;;;;;;;;10336095;28;20066;-59
2023/07/07 06:11:56;;;;;;;10.48;6.78;;;;;;;;;;10336219;28;20465;-59
2023/07/07 06:16:55;;;;;;;9.13;7.07;;;;;;;;;;10327373;28;20079;-59
2023/07/07 06:21:53;;;;;;;9.63;7.35;;;;;;;;;;10330403;28;20150;-60
2023/07/07 06:26:52;;;;;;;8.18;6.75;;;;;;;;;;10336272;28;20068;-59
2023/07/07 06:31:51;;;;;;;12.07;7.82;;;;;;;;;;10330172;28;20080;-59
2023/07/07 06:36:49;;;;;;;11.43;7.88;;;;;;;;;;10331914;28;20532;-59
2023/07/07 06:41:47;;;;;;;8.48;7.65;;;;;;;;;;10336804;28;20063;-59
2023/07/07 06:46:47;;;;;;;11.85;8.73;;;;;;;;;;10332717;28;20072;-59
2023/07/07 06:51:45;;;;;;;14.48;12.45;;;;;;;;;;10333900;28;20063;-59
2023/07/07 06:56:43;;;;;;;8.35;7.53;;;;;;;;;;10331494;28;20618;-59
2023/07/07 07:01:41;;;;;;;8.40;6.63;;;;;;;;;;10331470;28;20695;-59
2023/07/07 07:06:43;;;;;;;9.93;6.13;;;;;;;;;;10329215;28;20068;-59
2023/07/07 07:11:41;;;;;;;7.40;6.70;;;;;;;;;;10332283;28;20078;-58
2023/07/07 07:16:41;;;;;;;8.18;7.38;;;;;;;;;;10328962;28;20076;-59
2023/07/07 07:21:41;;;;;;;7.35;6.65;;;;;;;;;;10326454;28;20084;-59
2023/07/07 07:26:41;;;;;;;7.50;6.07;;;;;;;;;;10322276;28;20095;-59
2023/07/07 07:31:39;;;;;;;9.70;6.57;;;;;;;;;;10325360;28;20068;-59
2023/07/07 07:36:37;;;;;;;6.20;4.70;;;;;;;;;;10323005;28;20084;-59
2023/07/07 07:41:37;;;;;;;7.60;4.65;;;;;;;;;;10330052;28;20071;-59
2023/07/07 07:46:36;;;;;;;6.43;3.78;;;;;;;;;;10328695;28;20186;-59
2023/07/07 07:51:37;;;;;;;4.00;3.60;;;;;;;;;;10330500;28;20515;-60
2023/07/07 07:56:39;;;;;;;5.32;3.38;;;;;;;;;;10330632;28;20484;-59
2023/07/07 08:01:38;;;;;;;5.03;3.58;;;;;;;;;;10330793;28;20074;-59
2023/07/07 08:06:37;;;;;;;4.20;3.75;;;;;;;;;;10331006;28;20474;-59
2023/07/07 08:11:55;;;;;;;4.53;4.13;;;;;;;;;;10325365;28;20841;-58
2023/07/07 08:16:55;;;;;;;4.63;4.10;;;;;;;;;;10329954;28;20064;-59
2023/07/07 08:21:53;;;;;;;8.20;5.43;;;;;;;;;;10325812;28;20060;-59
2023/07/07 08:26:52;;;;;;;6.50;5.82;;;;;;;;;;10337970;28;20060;-59
2023/07/07 08:31:50;;;;;;;5.18;4.45;;;;;;;;;;10341351;28;20064;-59
2023/07/07 08:36:49;;;;;;;6.50;5.72;;;;;;;;;;10338148;28;20540;-59
2023/07/07 08:41:50;;;;;;;7.55;5.25;;;;;;;;;;10339307;28;20064;-59
2023/07/07 08:46:55;;;;;;;8.50;5.10;;;;;;;;;;10336869;28;20084;-59
2023/07/07 08:51:58;;;;;;;6.88;5.78;;;;;;;;;;10335569;28;20083;-60
2023/07/07 08:57:03;;;;;;;6.28;5.68;;;;;;;;;;10339159;28;20076;-60
2023/07/07 09:02:07;;;;;;;9.20;5.63;;;;;;;;;;10336261;28;20067;-59
2023/07/07 09:07:19;;;;;;;7.50;6.05;;;;;;;;;;10336990;28;20075;-60
2023/07/07 09:12:24;;;;;;;6.97;6.43;;;;;;;;;;10314008;28;20079;-59
2023/07/07 09:17:24;;;;;;;10.10;6.78;;;;;;;;;;10339813;28;20079;-59
2023/07/07 09:22:25;;;;;;;6.80;6.30;;;;;;;;;;10334556;28;20509;-60
2023/07/07 09:27:26;;;;;;;7.95;7.10;;;;;;;;;;10335201;28;20072;-59
2023/07/07 09:32:24;;;;;;;7.10;6.50;;;;;;;;;;10335048;28;20075;-60
2023/07/07 09:37:28;;;;;;;7.70;7.10;;;;;;;;;;10336522;28;20076;-60
2023/07/07 09:42:37;;;;;;;7.95;6.72;;;;;;;;;;10336849;28;20091;-60
2023/07/07 09:47:39;;;;;;;7.30;6.28;;;;;;;;;;10334812;28;20068;-59
2023/07/07 09:52:43;;;;;;;6.70;6.00;;;;;;;;;;10334070;28;20075;-59
2023/07/07 09:57:41;;;;;;;;;;;;;;;;;;10334743;28;20076;-59
2023/07/07 10:02:39;;;;;;;7.47;6.25;;;;;;;;;;10331168;28;19967;-58
2023/07/07 10:07:38;;;;;;;7.72;6.88;;;;;;;;;;10336285;28;20936;-59
2023/07/07 10:12:39;;;;;;;7.85;7.18;;;;;;;;;;10333342;28;20139;-59
2023/07/07 10:17:46;;;;;;;6.82;6.22;;;;;;;;;;10333035;28;20079;-58
2023/07/07 10:22:44;;;;;;;9.07;6.88;;;;;;;;;;10334491;28;20061;-59
2023/07/07 10:27:49;;;;;;;7.43;6.13;;;;;;;;;;10333436;28;20076;-59
2023/07/07 10:32:47;;;;;;;7.60;6.18;;;;;;;;;;10333435;28;20063;-59
2023/07/07 10:37:46;;;;;;;9.00;6.25;;;;;;;;;;10331590;28;20638;-59
2023/07/07 10:42:44;;;;;;;14.13;8.00;;;;;;;;;;10333144;28;20064;-59
2023/07/07 10:47:44;;;;;;;11.05;6.88;;;;;;;;;;10333395;28;20076;-59
2023/07/07 10:52:47;;;;;;;12.82;7.50;;;;;;;;;;10328410;28;20064;-58
2023/07/07 10:57:53;;;;;;;7.47;6.18;;;;;;;;;;10330836;28;20508;-59
2023/07/07 11:03:03;;;;;;;8.17;6.63;;;;;;;;;;10331794;28;20083;-59
2023/07/07 11:08:09;;;;;;;9.23;7.22;;;;;;;;;;10334164;28;20067;-59
2023/07/07 11:13:12;;;;;;;9.10;6.55;;;;;;;;;;10328095;28;20497;-60
2023/07/07 11:18:20;;;;;;;9.85;6.10;;;;;;;;;;10334028;28;20071;-60
2023/07/07 11:23:33;;;;;;;7.70;6.50;;;;;;;;;;10327709;28;20071;-60
2023/07/07 11:28:37;;;;;;;8.00;7.20;;;;;;;;;;10328434;28;20076;-60
2023/07/07 11:33:43;;;;;;;10.52;6.65;;;;;;;;;;10331312;28;20082;-60
2023/07/07 11:38:57;;;;;;;11.60;6.53;;;;;;;;;;10329763;28;20078;-60
2023/07/07 11:44:04;;;;;;;9.20;6.70;;;;;;;;;;10330934;28;20068;-60
2023/07/07 11:49:10;;;;;;;12.57;7.32;;;;;;;;;;10322738;28;20076;-59
2023/07/07 11:54:25;;;;;;;11.27;7.50;;;;;;;;;;10330007;28;20065;-59
2023/07/07 11:59:29;;;;;;;14.57;7.03;;;;;;;;;;10332216;28;20068;-60
2023/07/07 12:04:32;;;;;;;12.18;8.20;;;;;;;;;;10331922;28;20482;-59
2023/07/07 12:09:37;;;;;;;14.48;7.93;;;;;;;;;;10336624;28;20068;-59
2023/07/07 12:14:37;;;;;;;13.10;9.55;;;;;;;;;;10339596;28;20079;-59
2023/07/07 12:19:41;;;;;;;11.23;8.95;;;;;;;;;;10338389;28;20080;-59
2023/07/07 12:24:42;;;;;;;10.65;8.60;;;;;;;;;;10338201;28;20075;-59
2023/07/07 12:29:41;;;;;;;12.48;8.18;;;;;;;;;;10337140;28;20102;-58
2023/07/07 12:34:42;;;;;;;12.93;8.77;;;;;;;;;;10332421;28;20428;-59
2023/07/07 12:39:50;;;;;;;15.05;9.20;;;;;;;;;;10336749;28;20068;-59
2023/07/07 12:44:49;;;;;;;11.70;8.95;;;;;;;;;;10333734;28;20079;-59
2023/07/07 12:49:54;;;;;;;8.15;6.97;;;;;;;;;;10336404;28;20512;-59
2023/07/07 12:54:53;;;;;;;9.52;6.25;;;;;;;;;;10336599;28;20079;-59
2023/07/07 12:59:52;;;;;;;8.13;5.38;;;;;;;;;;10335380;28;20078;-59
2023/07/07 13:04:51;;;;;;;12.75;5.72;;;;;;;;;;10337142;28;20068;-59
2023/07/07 13:09:51;;;;;;;12.60;6.20;;;;;;;;;;10333890;28;20147;-59
2023/07/07 13:14:52;;;;;;;6.88;6.18;;;;;;;;;;10335883;28;21483;-59
2023/07/07 13:19:52;;;;;;;7.72;5.75;;;;;;;;;;10335157;28;20517;-59
2023/07/07 13:24:56;;;;;;;6.82;6.05;;;;;;;;;;10334528;28;20068;-58
2023/07/07 13:29:57;;;;;;;8.10;5.57;;;;;;;;;;10334741;28;20099;-58
2023/07/07 13:34:59;;;;;;;7.32;6.15;;;;;;;;;;10333371;28;20079;-59
2023/07/07 13:39:58;;;;;;;11.98;6.18;;;;;;;;;;10334768;28;20505;-59
2023/07/07 13:44:57;;;;;;;6.68;5.10;;;;;;;;;;10333162;28;20076;-59
2023/07/07 13:49:57;;;;;;;6.85;6.15;;;;;;;;;;10333274;28;20487;-59
2023/07/07 13:54:56;;;;;;;7.88;7.07;;;;;;;;;;10334012;28;20089;-60
2023/07/07 13:59:57;;;;;;;11.90;6.57;;;;;;;;;;10333667;28;20075;-59
2023/07/07 14:04:57;;;;;;;6.15;5.55;;;;;;;;;;10334638;28;20075;-60
2023/07/07 14:09:55;;;;;;;8.88;6.32;;;;;;;;;;10331661;28;20068;-59
2023/07/07 14:14:54;;;;;;;8.50;5.68;;;;;;;;;;10330898;28;20102;-60
2023/07/07 14:19:56;;;;;;;6.97;6.15;;;;;;;;;;10333738;28;20093;-60
2023/07/07 14:24:55;;;;;;;7.15;5.40;;;;;;;;;;10332592;28;20064;-59
2023/07/07 14:29:54;;;;;;;8.70;6.78;;;;;;;;;;10331931;28;20071;-60
2023/07/07 14:34:53;;;;;;;8.50;6.47;;;;;;;;;;10333129;28;20076;-61
2023/07/07 14:39:54;;;;;;;10.23;5.80;;;;;;;;;;10330477;28;20071;-60
2023/07/07 14:44:53;;;;;;;6.30;5.70;;;;;;;;;;10333054;28;20068;-59
2023/07/07 14:49:52;;;;;;;6.90;5.28;;;;;;;;;;10333468;28;20079;-59
2023/07/07 14:54:50;;;;;;;9.88;7.07;;;;;;;;;;10331261;28;20075;-59
2023/07/07 14:59:50;;;;;;;12.00;7.22;;;;;;;;;;10330496;28;20070;-59
2023/07/07 15:04:48;;;;;;;7.07;5.10;;;;;;;;;;10330299;28;20106;-58
2023/07/07 15:09:47;;;;;;;6.47;5.82;;;;;;;;;;10332096;28;20083;-59
2023/07/07 15:14:46;;;;;;;7.43;5.55;;;;;;;;;;10331560;28;20079;-58
2023/07/07 15:19:47;;;;;;;9.70;4.63;;;;;;;;;;10329541;28;20059;-58
2023/07/07 15:24:45;;;;;;;4.90;4.40;;;;;;;;;;10331495;28;20063;-59
2023/07/07 15:29:43;;;;;;;5.40;4.53;;;;;;;;;;10329863;28;20072;-59
2023/07/07 15:34:41;;;;;;;7.85;4.63;;;;;;;;;;10329676;28;20068;-59
2023/07/07 15:39:41;;;;;;;4.80;4.35;;;;;;;;;;10331098;28;20068;-59
2023/07/07 15:44:39;;;;;;;7.30;5.20;;;;;;;;;;10329771;28;20162;-59
2023/07/07 15:49:38;;;;;;;5.00;4.57;;;;;;;;;;10330544;28;20095;-59
2023/07/07 15:54:36;;;;;;;8.18;5.60;;;;;;;;;;10330051;28;20076;-59
2023/07/07 15:59:36;;;;;;;15.68;6.00;;;;;;;;;;10330030;28;20107;-60
2023/07/07 16:04:35;;;;;;;6.43;4.97;;;;;;;;;;10329286;28;20425;-60
2023/07/07 16:09:33;;;;;;;12.65;7.72;;;;;;;;;;10320000;28;20080;-58
2023/07/07 16:14:33;;;;;;;25.15;10.30;;;;;;;;;;10328606;28;20067;-59
2023/07/07 16:19:35;;;;;;;16.83;7.45;;;;;;;;;;10329779;28;20082;-59
2023/07/07 16:24:34;;;;;;;12.55;7.25;;;;;;;;;;10330800;28;20452;-60
2023/07/07 16:29:32;;;;;;;4.63;4.13;;;;;;;;;;10329980;28;20068;-59
2023/07/07 16:34:30;;;;;;;7.05;3.70;;;;;;;;;;10328974;28;20055;-58
2023/07/07 16:39:30;;;;;;;7.20;4.50;;;;;;;;;;10327498;28;20529;-59
2023/07/07 16:44:28;;;;;;;9.05;4.68;;;;;;;;;;10331675;28;20079;-58
2023/07/07 16:49:26;;;;;;;6.82;4.15;;;;;;;;;;10337535;28;20509;-59
2023/07/07 16:54:25;;;;;;;4.50;3.28;;;;;;;;;;10336382;28;20526;-59
2023/07/07 16:59:24;;;;;;;5.20;4.15;;;;;;;;;;10335140;28;20075;-58
2023/07/07 17:04:24;;;;;;;9.80;3.45;;;;;;;;;;10336173;28;20525;-59
2023/07/07 17:09:22;;;;;;;6.82;3.58;;;;;;;;;;10334391;28;20096;-58
2023/07/07 17:14:20;;;;;;;3.45;3.15;;;;;;;;;;10337214;28;20075;-58
2023/07/07 17:19:21;;;;;;;4.55;4.15;;;;;;;;;;10335519;28;20544;-58
2023/07/07 17:24:21;;;;;;;9.93;5.00;;;;;;;;;;10336730;28;20133;-58
2023/07/07 17:29:19;;;;;;;4.90;4.15;;;;;;;;;;10335134;28;20520;-58
2023/07/07 17:34:18;;;;;;;5.88;5.15;;;;;;;;;;10335179;28;20079;-58
2023/07/07 17:39:19;;;;;;;6.32;4.97;;;;;;;;;;10333948;28;20664;-58
2023/07/07 17:44:17;;;;;;;7.47;5.20;;;;;;;;;;10326923;28;20072;-58
2023/07/07 17:49:16;;;;;;;5.40;4.75;;;;;;;;;;10336582;28;20079;-60
2023/07/07 17:54:15;;;;;;;5.50;4.30;;;;;;;;;;10334558;28;20543;-60
2023/07/07 17:59:17;;;;;;;6.28;4.35;;;;;;;;;;10330378;28;20072;-58
2023/07/07 18:04:15;;;;;;;5.07;4.35;;;;;;;;;;10332200;28;20080;-59
2023/07/07 18:09:14;;;;;;;6.20;3.90;;;;;;;;;;10329611;28;20512;-59
2023/07/07 18:14:12;;;;;;;7.97;4.22;;;;;;;;;;10335196;28;20071;-58
2023/07/07 18:19:13;;;;;;;5.28;4.72;;;;;;;;;;10329925;28;20461;-58
2023/07/07 18:24:31;;;;;;;4.78;4.20;;;;;;;;;;10330755;28;20757;-58
2023/07/07 18:29:33;;;;;;;6.10;4.80;;;;;;;;;;10330534;28;20442;-58
2023/07/07 18:34:34;;;;;;;5.50;4.00;;;;;;;;;;10336998;28;20070;-58
2023/07/07 18:39:35;;;;;;;6.57;4.88;;;;;;;;;;10333643;28;20465;-60
2023/07/07 18:44:33;;;;;;;5.32;4.82;;;;;;;;;;10331743;28;20472;-58
2023/07/07 18:49:33;;;;;;;4.13;3.72;;;;;;;;;;10326482;28;20087;-58
2023/07/07 18:54:31;;;;;;;4.75;3.53;;;;;;;;;;10333423;28;20064;-59
2023/07/07 18:59:30;;;;;;;5.35;3.58;;;;;;;;;;10331954;28;20088;-58
2023/07/07 19:04:28;;;;;;;3.65;3.20;;;;;;;;;;10340244;28;20103;-58
2023/07/07 19:09:27;;;;;;;6.45;3.90;;;;;;;;;;10339066;28;20064;-58
2023/07/07 19:14:26;;;;;;;4.60;3.80;;;;;;;;;;10327596;28;20102;-58
2023/07/07 19:19:25;;;;;;;5.60;4.10;;;;;;;;;;10333506;28;20083;-58
2023/07/07 19:24:23;;;;;;;9.77;4.32;;;;;;;;;;10325990;28;20064;-59
2023/07/07 19:29:23;;;;;;;5.18;4.40;;;;;;;;;;10337704;28;20536;-59
2023/07/07 19:34:21;;;;;;;4.22;3.83;;;;;;;;;;10328852;28;20540;-58
2023/07/07 19:39:21;;;;;;;4.85;3.67;;;;;;;;;;10339248;28;20517;-58
2023/07/07 19:44:20;;;;;;;9.02;4.05;;;;;;;;;;10320803;28;20075;-59
2023/07/07 19:49:20;;;;;;;4.57;4.18;;;;;;;;;;10328439;28;20552;-59
2023/07/07 19:54:18;;;;;;;6.53;4.50;;;;;;;;;;10335749;28;20087;-58
2023/07/07 19:59:18;;;;;;;5.40;4.57;;;;;;;;;;10335318;28;20074;-59
2023/07/07 20:04:17;;;;;;;6.25;4.80;;;;;;;;;;10326445;28;20076;-59
2023/07/07 20:09:18;;;;;;;7.63;5.38;;;;;;;;;;10336731;28;20078;-58
2023/07/07 20:14:17;;;;;;;10.73;6.68;;;;;;;;;;10338582;28;20120;-59
2023/07/07 20:19:16;;;;;;;6.82;6.13;;;;;;;;;;10338185;28;20064;-59
2023/07/07 20:24:15;;;;;;;7.20;6.07;;;;;;;;;;10342518;28;20080;-59
2023/07/07 20:29:15;;;;;;;6.65;5.97;;;;;;;;;;10335632;28;20091;-59
2023/07/07 20:34:13;;;;;;;7.85;6.13;;;;;;;;;;10346198;28;20075;-59
2023/07/07 20:39:12;;;;;;;8.25;7.45;;;;;;;;;;10335586;28;20091;-58
2023/07/07 20:44:11;;;;;;;7.47;5.63;;;;;;;;;;10336148;28;20083;-59
2023/07/07 20:49:13;;;;;;;9.13;4.80;;;;;;;;;;10342457;28;20080;-58
2023/07/07 20:54:11;;;;;;;5.85;5.28;;;;;;;;;;10332129;28;20063;-58
2023/07/07 20:59:10;;;;;;;10.20;6.22;;;;;;;;;;10326304;28;20540;-59
2023/07/07 21:04:25;;;;;;;6.57;5.90;;;;;;;;;;10332508;28;20817;-58
2023/07/07 21:09:23;;;;;;;7.03;5.20;;;;;;;;;;10331062;28;20079;-58
2023/07/07 21:14:22;;;;;;;6.32;5.50;;;;;;;;;;10337976;28;20083;-58
2023/07/07 21:19:20;;;;;;;7.88;7.03;;;;;;;;;;10338461;28;20528;-58
2023/07/07 21:24:20;;;;;;;10.38;6.45;;;;;;;;;;10340182;28;20094;-58
2023/07/07 21:29:18;;;;;;;5.90;5.30;;;;;;;;;;10339781;28;20064;-58
2023/07/07 21:34:16;;;;;;;6.35;5.15;;;;;;;;;;10338134;28;20083;-59
2023/07/07 21:39:17;;;;;;;9.15;5.57;;;;;;;;;;10336409;28;20091;-59
2023/07/07 21:44:17;;;;;;;9.85;5.63;;;;;;;;;;10329839;28;20103;-60
2023/07/07 21:49:16;;;;;;;8.10;5.60;;;;;;;;;;10335045;28;20079;-58
2023/07/07 21:54:14;;;;;;;8.13;5.03;;;;;;;;;;10325900;28;20072;-59
2023/07/07 21:59:17;;;;;;;7.45;4.95;;;;;;;;;;10327757;28;20064;-59
2023/07/07 22:04:16;;;;;;;5.87;5.33;;;;;;;;;;10324312;28;20099;-59
2023/07/07 22:09:15;;;;;;;11.82;5.07;;;;;;;;;;10327239;28;20082;-58
2023/07/07 22:14:14;;;;;;;7.88;4.78;;;;;;;;;;10332248;28;20512;-59
2023/07/07 22:19:14;;;;;;;5.68;5.07;;;;;;;;;;10333601;28;20515;-59
2023/07/07 22:24:13;;;;;;;9.45;5.28;;;;;;;;;;10333313;28;20068;-58
2023/07/07 22:29:12;;;;;;;6.45;4.45;;;;;;;;;;10326700;28;20076;-58
2023/07/07 22:34:10;;;;;;;4.53;4.10;;;;;;;;;;10332742;28;20083;-58
2023/07/07 22:39:11;;;;;;;7.00;4.70;;;;;;;;;;10329674;28;20083;-58
2023/07/07 22:44:09;;;;;;;8.93;4.15;;;;;;;;;;10330322;28;20071;-58
2023/07/07 22:49:10;;;;;;;7.28;4.60;;;;;;;;;;10333471;28;20091;-58
2023/07/07 22:54:08;;;;;;;6.75;4.10;;;;;;;;;;10331925;28;20071;-58
2023/07/07 22:59:17;;;;;;;5.88;3.95;;;;;;;;;;10330696;28;20098;-58
2023/07/07 23:04:16;;;;;;;3.83;3.35;;;;;;;;;;10334186;28;20083;-58
2023/07/07 23:09:32;;;;;;;5.57;4.25;;;;;;;;;;10330724;28;20068;-58
2023/07/07 23:14:32;;;;;;;5.90;3.75;;;;;;;;;;10332068;28;20071;-59
2023/07/07 23:19:30;;;;;;;6.22;3.80;;;;;;;;;;10331069;28;20087;-59
2023/07/07 23:24:28;;;;;;;5.63;4.25;;;;;;;;;;10331078;28;20084;-59
2023/07/07 23:29:26;;;;;;;6.60;4.65;;;;;;;;;;10334132;28;20075;-58
2023/07/07 23:34:26;;;;;;;5.22;3.97;;;;;;;;;;10330769;28;20067;-60
2023/07/07 23:39:24;;;;;;;4.60;4.20;;;;;;;;;;10325188;28;20067;-58
2023/07/07 23:44:25;;;;;;;4.43;4.03;;;;;;;;;;10326928;28;20068;-58
2023/07/07 23:49:23;;;;;;;4.03;3.70;;;;;;;;;;10331374;28;20072;-58
2023/07/07 23:54:23;;;;;;;6.22;4.40;;;;;;;;;;10330354;28;20068;-58
2023/07/07 23:59:24;;;;;;;4.75;3.53;;;;;;;;;;10338967;28;20458;-58
